Temp: 6.7°C   Baro: 1024.4mb
  Wind: 0.0mph   Dir: WNW (289°)
  Rain: 0.2mm (0.0mm/hr)
  Solar: 0W/m2  Hum: 92%
 
Bath Spa Weather Historical Data
Daily Summary for January 12, 2019 Units:  English    Metric   Both
Next Day »
Daily Weekly Monthly Yearly Custom
  High: Low: Average:
Temperature: 50.7 °F 44.4 °F 47.8 °F
Dew Point: 46.9 °F 41.2 °F 44.2 °F
Humidity: 93% 78% 87%
Wind Speed: 20mph 0mph 6.5mph
Wind Gust: 20mph - -
Wind direction- - WNW
Pressure: 30.4 in 30.2 in -
Precipitation: 0 in    
Historical Graphs
 
 
Tabular Data for January 12, 2019
Time Temperature Dew Point Pressure Wind direction Wind Speed Wind Gust Humidity Rainfall Rate (Hourly) solar
00:04 44.4 °F 41.2 °F 30.4 in Calm     88% 0 in 0.00 W/m2
00:09 44.6 °F 41.2 °F 30.4 in WNW 2.9 mph 4 mph 88% 0 in 0.00 W/m2
00:14 45 °F 41.5 °F 30.4 in NNW 0.9 mph 3 mph 88% 0 in 0.00 W/m2
00:19 45.1 °F 41.7 °F 30.4 in Calm   4 mph 88% 0 in 0.00 W/m2
00:24 45.3 °F 41.9 °F 30.4 in WNW 2.9 mph 7 mph 88% 0 in 0.00 W/m2
00:29 45.3 °F 41.9 °F 30.4 in WNW 2.9 mph 4 mph 88% 0 in 0.00 W/m2
00:34 45.3 °F 41.9 °F 30.4 in WNW 0.9 mph 4 mph 88% 0 in 0.00 W/m2
00:39 45.3 °F 41.9 °F 30.4 in WNW 4 mph 5 mph 88% 0 in 0.00 W/m2
00:44 45.3 °F 41.9 °F 30.4 in WNW 2.9 mph 4 mph 88% 0 in 0.00 W/m2
00:49 45.3 °F 41.9 °F 30.4 in WNW 0.9 mph 3 mph 88% 0 in 0.00 W/m2
00:54 45.3 °F 41.9 °F 30.4 in WNW 0.9 mph 2 mph 88% 0 in 0.00 W/m2
00:59 45.3 °F 41.9 °F 30.4 in WNW 0.9 mph 2 mph 88% 0 in 0.00 W/m2
01:04 45.3 °F 42.3 °F 30.4 in WNW 0.9 mph 3 mph 89% 0 in 0.00 W/m2
01:09 45.3 °F 42.3 °F 30.4 in WNW 0.9 mph 2 mph 89% 0 in 0.00 W/m2
01:14 45.3 °F 42.3 °F 30.4 in NW 5 mph 5 mph 89% 0 in 0.00 W/m2
01:19 45.5 °F 42.1 °F 30.4 in Calm   3 mph 88% 0 in 0.00 W/m2
01:24 45.5 °F 42.1 °F 30.4 in Calm   4 mph 88% 0 in 0.00 W/m2
01:29 45.5 °F 42.1 °F 30.4 in Calm     88% 0 in 0.00 W/m2
01:34 45.7 °F 42.3 °F 30.4 in NW 0.9 mph 3 mph 88% 0 in 0.00 W/m2
01:39 45.7 °F 42.3 °F 30.4 in WNW 2.9 mph 4 mph 88% 0 in 0.00 W/m2
01:44 45.9 °F 42.3 °F 30.4 in WNW 4 mph 6 mph 87% 0 in 0.00 W/m2
01:49 46.2 °F 42.6 °F 30.4 in WNW 9 mph 9 mph 87% 0 in 0.00 W/m2
01:54 46.6 °F 43 °F 30.4 in West 4 mph 11 mph 87% 0 in 0.00 W/m2
01:59 46.8 °F 43.2 °F 30.4 in West 8.1 mph 9 mph 87% 0 in 0.00 W/m2
02:04 46.9 °F 43.3 °F 30.4 in WNW 6 mph 9 mph 87% 0 in 0.00 W/m2
02:09 46.9 °F 43.3 °F 30.4 in WNW 11 mph 11 mph 87% 0 in 0.00 W/m2
02:14 46.9 °F 43.3 °F 30.4 in West 4 mph 12 mph 87% 0 in 0.00 W/m2
02:19 46.9 °F 43.5 °F 30.4 in WNW 6 mph 10 mph 88% 0 in 0.00 W/m2
02:24 46.9 °F 43.5 °F 30.4 in WNW 4 mph 7 mph 88% 0 in 0.00 W/m2
02:29 46.9 °F 43.5 °F 30.4 in WNW 6.9 mph 7 mph 88% 0 in 0.00 W/m2
02:34 46.9 °F 43.5 °F 30.4 in WNW 4 mph 5 mph 88% 0 in 0.00 W/m2
02:39 46.9 °F 43.5 °F 30.4 in WSW 2.9 mph 11 mph 88% 0 in 0.00 W/m2
02:44 46.9 °F 43.5 °F 30.4 in WNW 4 mph 11 mph 88% 0 in 0.00 W/m2
02:49 46.9 °F 43.5 °F 30.4 in WNW 4.9 mph 11 mph 88% 0 in 0.00 W/m2
02:54 46.9 °F 43.5 °F 30.4 in WNW 8.1 mph 10 mph 88% 0 in 0.00 W/m2
02:59 46.8 °F 43.7 °F 30.4 in WNW 6 mph 10 mph 89% 0 in 0.00 W/m2
03:04 46.8 °F 43.7 °F 30.4 in West 4 mph 16 mph 89% 0 in 0.00 W/m2
03:09 46.9 °F 43.9 °F 30.4 in West 6.9 mph 14 mph 89% 0 in 0.00 W/m2
03:14 46.9 °F 43.9 °F 30.4 in West 8.9 mph 12 mph 89% 0 in 0.00 W/m2
03:19 46.9 °F 43.9 °F 30.4 in West 4.9 mph 7 mph 89% 0 in 0.00 W/m2
03:24 46.8 °F 43.7 °F 30.4 in West 6 mph 9 mph 89% 0 in 0.00 W/m2
03:29 46.8 °F 43.7 °F 30.4 in WNW 8.1 mph 10 mph 89% 0 in 0.00 W/m2
03:34 46.8 °F 43.7 °F 30.4 in WNW 4 mph 9 mph 89% 0 in 0.00 W/m2
03:39 46.8 °F 43.7 °F 30.3 in NW 6 mph 9 mph 89% 0 in 0.00 W/m2
03:44 46.9 °F 44.2 °F 30.3 in WNW 4.9 mph 11 mph 90% 0 in 0.00 W/m2
03:49 46.9 °F 44.2 °F 30.3 in WNW 6.9 mph 13 mph 90% 0 in 0.00 W/m2
03:54 47.1 °F 44.4 °F 30.3 in WNW 8.1 mph 12 mph 90% 0 in 0.00 W/m2
03:59 47.1 °F 44.4 °F 30.3 in West 4.9 mph 11 mph 90% 0 in 0.00 W/m2
04:04 47.1 °F 44.4 °F 30.3 in WNW 8.9 mph 9 mph 90% 0 in 0.00 W/m2
04:09 47.1 °F 44.4 °F 30.3 in WNW 13 mph 13 mph 90% 0 in 0.00 W/m2
04:14 47.1 °F 44.4 °F 30.3 in WNW 6 mph 11 mph 90% 0 in 0.00 W/m2
04:19 47.1 °F 44.4 °F 30.3 in West 8.1 mph 8 mph 90% 0 in 0.00 W/m2
04:24 47.1 °F 44.4 °F 30.3 in WNW 2 mph 11 mph 90% 0 in 0.00 W/m2
04:29 47.1 °F 44.4 °F 30.3 in WSW 4.9 mph 7 mph 90% 0 in 0.00 W/m2
04:34 47.1 °F 44.4 °F 30.3 in NW 8.1 mph 9 mph 90% 0 in 0.00 W/m2
04:39 47.1 °F 44.4 °F 30.3 in West 2.9 mph 9 mph 90% 0 in 0.00 W/m2
04:44 47.1 °F 44.4 °F 30.3 in WNW 2.9 mph 8 mph 90% 0 in 0.00 W/m2
04:49 47.1 °F 44.4 °F 30.3 in West 11 mph 11 mph 90% 0 in 0.00 W/m2
04:54 47.1 °F 44.4 °F 30.3 in West 4.9 mph 7 mph 90% 0 in 0.00 W/m2
04:59 47.1 °F 44.4 °F 30.3 in NW 2.9 mph 10 mph 90% 0 in 0.00 W/m2
05:04 47.1 °F 44.6 °F 30.3 in WSW 14 mph 14 mph 91% 0 in 0.00 W/m2
05:09 47.1 °F 44.6 °F 30.3 in West 6.9 mph 11 mph 91% 0 in 0.00 W/m2
05:14 47.1 °F 44.6 °F 30.3 in West 4 mph 12 mph 91% 0 in 0.00 W/m2
05:19 47.1 °F 44.6 °F 30.3 in WNW 15 mph 15 mph 91% 0 in 0.00 W/m2
05:24 47.1 °F 44.6 °F 30.3 in West 6 mph 15 mph 91% 0 in 0.00 W/m2
05:29 47.1 °F 45 °F 30.3 in WNW 16 mph 16 mph 92% 0 in 0.00 W/m2
05:34 47.1 °F 45 °F 30.3 in WSW 8.1 mph 12 mph 92% 0 in 0.00 W/m2
05:39 47.1 °F 44.6 °F 30.3 in West 10.1 mph 12 mph 91% 0 in 0.00 W/m2
05:44 47.3 °F 44.8 °F 30.3 in West 19 mph 19 mph 91% 0 in 0.00 W/m2
05:49 47.3 °F 44.8 °F 30.3 in WNW 8.1 mph 17 mph 91% 0 in 0.00 W/m2
05:54 47.5 °F 44.8 °F 30.3 in WNW 6 mph 14 mph 90% 0 in 0.00 W/m2
05:59 47.5 °F 44.4 °F 30.3 in WNW 6.9 mph 9 mph 89% 0 in 0.00 W/m2
06:04 47.5 °F 44.4 °F 30.3 in West 8.9 mph 11 mph 89% 0 in 0.00 W/m2
06:09 47.5 °F 44.4 °F 30.3 in NW 10.1 mph 14 mph 89% 0 in 0.00 W/m2
06:14 47.5 °F 44.4 °F 30.3 in West 6 mph 11 mph 89% 0 in 0.00 W/m2
06:19 47.3 °F 44.2 °F 30.3 in NNW 11 mph 15 mph 89% 0 in 0.00 W/m2
06:24 47.5 °F 44.4 °F 30.3 in West 6 mph 11 mph 89% 0 in 0.00 W/m2
06:29 47.5 °F 44.4 °F 30.3 in WNW 4.9 mph 9 mph 89% 0 in 0.00 W/m2
06:34 47.3 °F 44.2 °F 30.3 in West 4.9 mph 13 mph 89% 0 in 0.00 W/m2
06:39 47.3 °F 44.2 °F 30.3 in WNW 4.9 mph 10 mph 89% 0 in 0.00 W/m2
06:44 47.3 °F 44.2 °F 30.3 in NW 6 mph 10 mph 89% 0 in 0.00 W/m2
06:49 47.3 °F 44.2 °F 30.3 in West 4 mph 9 mph 89% 0 in 0.00 W/m2
06:54 47.3 °F 44.6 °F 30.3 in WNW 6 mph 11 mph 90% 0 in 0.00 W/m2
06:59 47.3 °F 44.6 °F 30.3 in WNW 2.9 mph 10 mph 90% 0 in 0.00 W/m2
07:04 47.3 °F 44.6 °F 30.3 in WNW 8.1 mph 10 mph 90% 0 in 0.00 W/m2
07:09 47.3 °F 44.6 °F 30.3 in WNW 6 mph 9 mph 90% 0 in 0.00 W/m2
07:14 47.1 °F 44.4 °F 30.3 in NW 2.9 mph 10 mph 90% 0 in 0.00 W/m2
07:19 47.1 °F 44.4 °F 30.3 in WNW 8.9 mph 12 mph 90% 0 in 0.00 W/m2
07:24 47.3 °F 44.6 °F 30.3 in WNW 6.9 mph 14 mph 90% 0 in 0.00 W/m2
07:29 47.3 °F 44.6 °F 30.3 in West 4.9 mph 13 mph 90% 0 in 0.00 W/m2
07:34 47.3 °F 44.6 °F 30.3 in West 11 mph 13 mph 90% 0 in 0.00 W/m2
07:39 47.3 °F 44.6 °F 30.3 in WNW 8.1 mph 13 mph 90% 0 in 0.00 W/m2
07:44 47.3 °F 44.6 °F 30.3 in West 4 mph 11 mph 90% 0 in 0.00 W/m2
07:49 47.3 °F 44.6 °F 30.3 in WNW 2 mph 14 mph 90% 0 in 0.00 W/m2
07:54 47.3 °F 44.6 °F 30.3 in West 6.9 mph 13 mph 90% 0 in 0.00 W/m2
07:59 47.3 °F 44.6 °F 30.3 in WNW 6.9 mph 15 mph 90% 0 in 0.00 W/m2
08:04 47.3 °F 44.6 °F 30.3 in WNW 8.9 mph 10 mph 90% 0 in 0.00 W/m2
08:09 47.5 °F 44.8 °F 30.3 in WNW 10.1 mph 14 mph 90% 0 in 0.00 W/m2
08:14 47.5 °F 44.8 °F 30.3 in West 8.9 mph 15 mph 90% 0 in 0.00 W/m2
08:19 47.5 °F 44.8 °F 30.3 in WNW 6.9 mph 12 mph 90% 0 in 0.00 W/m2
08:24 47.5 °F 44.8 °F 30.3 in WNW 4.9 mph 13 mph 90% 0 in 0.00 W/m2
08:29 47.7 °F 45 °F 30.3 in NNW 8.9 mph 12 mph 90% 0 in 5.00 W/m2
08:34 47.7 °F 45 °F 30.3 in West 11 mph 15 mph 90% 0 in 0.00 W/m2
08:39 47.7 °F 45 °F 30.3 in WNW 2.9 mph 17 mph 90% 0 in 0.00 W/m2
08:44 47.7 °F 45.1 °F 30.3 in West 6 mph 14 mph 91% 0 in 5.00 W/m2
08:49 47.7 °F 45.1 °F 30.3 in WNW 10.1 mph 14 mph 91% 0 in 7.00 W/m2
08:54 47.7 °F 45.1 °F 30.3 in WNW 8.9 mph 12 mph 91% 0 in 12.00 W/m2
08:59 47.7 °F 45.1 °F 30.3 in WNW 13 mph 13 mph 91% 0 in 9.00 W/m2
09:04 47.7 °F 45.5 °F 30.3 in WNW 8.1 mph 11 mph 92% 0 in 12.00 W/m2
09:09 47.8 °F 45.7 °F 30.3 in WNW 4 mph 15 mph 92% 0 in 14.00 W/m2
09:14 47.8 °F 45.7 °F 30.3 in NW 6 mph 14 mph 92% 0 in 14.00 W/m2
09:19 47.8 °F 45.7 °F 30.3 in WNW 15 mph 15 mph 92% 0 in 16.00 W/m2
09:24 47.8 °F 45.7 °F 30.3 in NW 6.9 mph 10 mph 92% 0 in 19.00 W/m2
09:29 47.8 °F 45.7 °F 30.3 in WNW 6.9 mph 12 mph 92% 0 in 19.00 W/m2
09:34 47.8 °F 45.7 °F 30.3 in WNW 4.9 mph 9 mph 92% 0 in 25.00 W/m2
09:39 47.8 °F 45.7 °F 30.3 in WNW 6.9 mph 12 mph 92% 0 in 26.00 W/m2
09:44 48 °F 45.9 °F 30.3 in West 4 mph 11 mph 92% 0 in 28.00 W/m2
09:49 48 °F 45.9 °F 30.3 in West 8.1 mph 11 mph 92% 0 in 40.00 W/m2
09:54 48 °F 46 °F 30.3 in WNW 8.1 mph 19 mph 93% 0 in 32.00 W/m2
09:59 48 °F 45.9 °F 30.3 in WNW 8.1 mph 10 mph 92% 0 in 28.00 W/m2
10:04 48.2 °F 46.2 °F 30.3 in WNW 11 mph 15 mph 93% 0 in 25.00 W/m2
10:09 48.2 °F 46.2 °F 30.3 in WNW 10.1 mph 14 mph 93% 0 in 21.00 W/m2
10:14 48.4 °F 46.4 °F 30.3 in WNW 4 mph 14 mph 93% 0 in 32.00 W/m2
10:19 48.4 °F 46.4 °F 30.3 in NW 6 mph 9 mph 93% 0 in 32.00 W/m2
10:24 48.4 °F 46.4 °F 30.3 in West 6 mph 10 mph 93% 0 in 35.00 W/m2
10:29 48.4 °F 46.4 °F 30.3 in WNW 6 mph 11 mph 93% 0 in 32.00 W/m2
10:34 48.6 °F 46.4 °F 30.2 in WNW 8.9 mph 12 mph 92% 0 in 42.00 W/m2
10:39 48.6 °F 46.4 °F 30.2 in West 6 mph 15 mph 92% 0 in 54.00 W/m2
10:44 48.7 °F 46.6 °F 30.2 in West 6.9 mph 13 mph 92% 0 in 51.00 W/m2
10:49 48.7 °F 46.6 °F 30.2 in West 15 mph 15 mph 92% 0 in 56.00 W/m2
10:54 48.7 °F 46.6 °F 30.2 in West 6 mph 13 mph 92% 0 in 58.00 W/m2
10:59 48.7 °F 46.6 °F 30.2 in West 4 mph 7 mph 92% 0 in 62.00 W/m2
11:04 48.7 °F 46.6 °F 30.2 in West 4 mph 9 mph 92% 0 in 54.00 W/m2
11:09 48.9 °F 46.8 °F 30.2 in WNW 4.9 mph 12 mph 92% 0 in 46.00 W/m2
11:14 48.9 °F 46.8 °F 30.2 in NNW 10.1 mph 13 mph 92% 0 in 53.00 W/m2
11:19 49.1 °F 46.9 °F 30.2 in WNW 6.9 mph 11 mph 92% 0 in 62.00 W/m2
11:24 49.1 °F 46.6 °F 30.2 in WNW 2 mph 11 mph 91% 0 in 77.00 W/m2
11:29 49.3 °F 46.8 °F 30.2 in WNW 6.9 mph 9 mph 91% 0 in 70.00 W/m2
11:34 49.5 °F 46.9 °F 30.2 in WNW 6 mph 9 mph 91% 0 in 67.00 W/m2
11:39 49.5 °F 46.6 °F 30.2 in WNW 6 mph 13 mph 90% 0 in 90.00 W/m2
11:44 49.5 °F 46.6 °F 30.2 in WNW 8.1 mph 8 mph 90% 0 in 90.00 W/m2
11:49 49.6 °F 46.8 °F 30.2 in West 8.1 mph 8 mph 90% 0 in 98.00 W/m2
11:54 49.6 °F 46.8 °F 30.2 in NW 8.9 mph 12 mph 90% 0 in 111.00 W/m2
11:59 49.8 °F 46.9 °F 30.2 in WNW 13 mph 13 mph 90% 0 in 114.00 W/m2
12:04 49.8 °F 46.8 °F 30.2 in West 6.9 mph 11 mph 89% 0 in 111.00 W/m2
12:09 50 °F 46.9 °F 30.2 in WNW 6 mph 9 mph 89% 0 in 109.00 W/m2
12:14 50 °F 46.6 °F 30.2 in NW 2.9 mph 14 mph 88% 0 in 107.00 W/m2
12:19 50 °F 46.2 °F 30.2 in WNW 12.1 mph 15 mph 87% 0 in 111.00 W/m2
12:24 50.4 °F 46.4 °F 30.2 in WNW 11 mph 15 mph 86% 0 in 116.00 W/m2
12:29 50.4 °F 46 °F 30.2 in NW 2 mph 11 mph 85% 0 in 120.00 W/m2
12:34 50.5 °F 45.5 °F 30.2 in NNW 0.9 mph 13 mph 83% 0 in 120.00 W/m2
12:39 50.5 °F 45.3 °F 30.2 in WNW 11 mph 17 mph 82% 0 in 120.00 W/m2
12:44 50.5 °F 45 °F 30.2 in WNW 8.9 mph 15 mph 81% 0 in 105.00 W/m2
12:49 50.7 °F 45.1 °F 30.2 in WNW 6.9 mph 17 mph 81% 0 in 91.00 W/m2
12:54 50.5 °F 44.6 °F 30.2 in WNW 8.1 mph 13 mph 80% 0 in 90.00 W/m2
12:59 50.5 °F 44.2 °F 30.2 in West 6 mph 13 mph 79% 0 in 84.00 W/m2
13:04 50.5 °F 44.2 °F 30.2 in WNW 6 mph 10 mph 79% 0 in 74.00 W/m2
13:09 50.5 °F 44.2 °F 30.2 in WNW 4 mph 9 mph 79% 0 in 54.00 W/m2
13:14 50.5 °F 44.6 °F 30.2 in WNW 8.1 mph 13 mph 80% 0 in 56.00 W/m2
13:19 50.5 °F 44.6 °F 30.2 in West 8.1 mph 11 mph 80% 0 in 65.00 W/m2
13:24 50.4 °F 44.8 °F 30.2 in WNW 14 mph 14 mph 81% 0 in 58.00 W/m2
13:29 50.2 °F 45 °F 30.2 in West 20 mph 20 mph 82% 0 in 76.00 W/m2
13:34 50 °F 44.8 °F 30.2 in WNW 4.9 mph 11 mph 82% 0 in 90.00 W/m2
13:39 50 °F 44.8 °F 30.2 in WNW 4.9 mph 13 mph 82% 0 in 102.00 W/m2
13:44 49.8 °F 44.6 °F 30.2 in West 8.1 mph 11 mph 82% 0 in 111.00 W/m2
13:49 49.8 °F 44.6 °F 30.2 in WNW 6.9 mph 17 mph 82% 0 in 86.00 W/m2
13:54 49.8 °F 44.6 °F 30.2 in WNW 14.1 mph 14 mph 82% 0 in 86.00 W/m2
13:59 49.8 °F 44.6 °F 30.2 in WNW 2.9 mph 13 mph 82% 0 in 79.00 W/m2
14:04 49.8 °F 44.6 °F 30.2 in WNW 8.1 mph 11 mph 82% 0 in 65.00 W/m2
14:09 49.8 °F 44.6 °F 30.2 in NW 8.9 mph 11 mph 82% 0 in 70.00 W/m2
14:14 49.8 °F 44.2 °F 30.2 in WNW 8.1 mph 12 mph 81% 0 in 76.00 W/m2
14:19 49.8 °F 43.9 °F 30.2 in WNW 11 mph 12 mph 80% 0 in 79.00 W/m2
14:24 49.8 °F 43.9 °F 30.2 in WNW 4.9 mph 16 mph 80% 0 in 81.00 W/m2
14:29 49.8 °F 43.5 °F 30.2 in West 4 mph 17 mph 79% 0 in 77.00 W/m2
14:34 49.8 °F 43.9 °F 30.2 in NW 6 mph 12 mph 80% 0 in 77.00 W/m2
14:39 49.6 °F 43.7 °F 30.2 in WNW 12.1 mph 13 mph 80% 0 in 84.00 W/m2
14:44 49.6 °F 43.7 °F 30.2 in West 15 mph 15 mph 80% 0 in 84.00 W/m2
14:49 49.6 °F 43.7 °F 30.2 in WNW 4.9 mph 16 mph 80% 0 in 77.00 W/m2
14:54 49.6 °F 43.3 °F 30.2 in NW 6 mph 7 mph 79% 0 in 62.00 W/m2
14:59 49.6 °F 43.3 °F 30.2 in NNW 15 mph 15 mph 79% 0 in 54.00 W/m2
15:04 49.6 °F 43 °F 30.2 in NNW 6 mph 10 mph 78% 0 in 49.00 W/m2
15:09 49.6 °F 43 °F 30.2 in NW 6.9 mph 11 mph 78% 0 in 47.00 W/m2
15:14 49.6 °F 43 °F 30.2 in West 6 mph 9 mph 78% 0 in 44.00 W/m2
15:19 49.6 °F 43 °F 30.2 in WNW 2.9 mph 14 mph 78% 0 in 44.00 W/m2
15:24 49.5 °F 43.2 °F 30.2 in WNW 8.1 mph 9 mph 79% 0 in 42.00 W/m2
15:29 49.1 °F 42.8 °F 30.2 in WNW 4.9 mph 8 mph 79% 0 in 42.00 W/m2
15:34 48.9 °F 43 °F 30.2 in WNW 4.9 mph 12 mph 80% 0 in 37.00 W/m2
15:39 48.7 °F 43.2 °F 30.2 in WNW 16 mph 16 mph 81% 0 in 32.00 W/m2
15:44 48.7 °F 43.2 °F 30.2 in WNW 4.9 mph 19 mph 81% 0 in 26.00 W/m2
15:49 48.6 °F 43.3 °F 30.2 in WNW 4 mph 13 mph 82% 0 in 21.00 W/m2
15:54 48.6 °F 43.3 °F 30.2 in WNW 14 mph 14 mph 82% 0 in 18.00 W/m2
15:59 48.6 °F 43.3 °F 30.2 in West 8.1 mph 12 mph 82% 0 in 12.00 W/m2
16:04 48.6 °F 43.3 °F 30.2 in WNW 8.1 mph 10 mph 82% 0 in 7.00 W/m2
16:09 48.6 °F 43.3 °F 30.2 in West 6.9 mph 11 mph 82% 0 in 5.00 W/m2
16:14 48.6 °F 43.3 °F 30.2 in West 8.1 mph 12 mph 82% 0 in 0.00 W/m2
16:19 48.6 °F 43.3 °F 30.2 in West 4 mph 10 mph 82% 0 in 0.00 W/m2
16:24 48.4 °F 43.2 °F 30.2 in West 6 mph 10 mph 82% 0 in 0.00 W/m2
16:29 48.2 °F 43 °F 30.2 in West 6 mph 14 mph 82% 0 in 0.00 W/m2
16:34 48.2 °F 43.3 °F 30.2 in WNW 10.1 mph 14 mph 83% 0 in 0.00 W/m2
16:39 48.2 °F 43 °F 30.2 in WNW 8.1 mph 13 mph 82% 0 in 0.00 W/m2
16:44 48.2 °F 43 °F 30.2 in WNW 2.9 mph 8 mph 82% 0 in 0.00 W/m2
16:49 48 °F 42.8 °F 30.2 in WNW 4.9 mph 10 mph 82% 0 in 0.00 W/m2
16:54 47.8 °F 42.6 °F 30.2 in West 8.1 mph 8 mph 82% 0 in 0.00 W/m2
16:59 47.8 °F 42.6 °F 30.2 in WNW 4 mph 5 mph 82% 0 in 0.00 W/m2
17:04 47.8 °F 42.6 °F 30.2 in NW 6 mph 8 mph 82% 0 in 0.00 W/m2
17:09 47.8 °F 42.6 °F 30.2 in West 10.1 mph 12 mph 82% 0 in 0.00 W/m2
17:14 47.7 °F 42.4 °F 30.2 in NW 2 mph 9 mph 82% 0 in 0.00 W/m2
17:19 47.7 °F 42.4 °F 30.2 in WNW 6 mph 7 mph 82% 0 in 0.00 W/m2
17:24 47.5 °F 42.3 °F 30.2 in West 2.9 mph 6 mph 82% 0 in 0.00 W/m2
17:29 47.3 °F 42.1 °F 30.2 in West 2 mph 8 mph 82% 0 in 0.00 W/m2
17:34 47.3 °F 42.1 °F 30.2 in WNW 0.9 mph 5 mph 82% 0 in 0.00 W/m2
17:39 47.3 °F 42.1 °F 30.2 in WNW 4 mph 8 mph 82% 0 in 0.00 W/m2
17:44 47.3 °F 42.1 °F 30.2 in WNW 4.9 mph 8 mph 82% 0 in 0.00 W/m2
17:49 47.1 °F 42.3 °F 30.2 in West 6.9 mph 10 mph 83% 0 in 0.00 W/m2
17:54 47.1 °F 42.3 °F 30.2 in West 8.9 mph 12 mph 83% 0 in 0.00 W/m2
17:59 47.3 °F 42.4 °F 30.2 in West 8.1 mph 13 mph 83% 0 in 0.00 W/m2
18:04 47.1 °F 42.6 °F 30.2 in West 8.1 mph 12 mph 84% 0 in 0.00 W/m2
18:09 47.1 °F 42.6 °F 30.2 in West 4.9 mph 10 mph 84% 0 in 0.00 W/m2
18:14 47.1 °F 42.6 °F 30.2 in West 6.9 mph 13 mph 84% 0 in 0.00 W/m2
18:19 47.1 °F 42.8 °F 30.2 in WSW 6.9 mph 10 mph 85% 0 in 0.00 W/m2
18:24 47.1 °F 42.8 °F 30.2 in WNW 2.9 mph 13 mph 85% 0 in 0.00 W/m2
18:29 47.1 °F 42.8 °F 30.2 in WNW 10.1 mph 13 mph 85% 0 in 0.00 W/m2
18:34 47.1 °F 43.2 °F 30.2 in WNW 6.9 mph 11 mph 86% 0 in 0.00 W/m2
18:39 47.3 °F 43.3 °F 30.2 in WNW 4 mph 9 mph 86% 0 in 0.00 W/m2
18:44 47.3 °F 43.3 °F 30.2 in WSW 6 mph 11 mph 86% 0 in 0.00 W/m2
18:49 47.5 °F 43.5 °F 30.2 in WNW 6.9 mph 12 mph 86% 0 in 0.00 W/m2
18:54 47.5 °F 43.5 °F 30.2 in West 11 mph 13 mph 86% 0 in 0.00 W/m2
18:59 47.5 °F 43.5 °F 30.2 in West 6.9 mph 8 mph 86% 0 in 0.00 W/m2
19:04 47.5 °F 43.5 °F 30.2 in WNW 4.9 mph 12 mph 86% 0 in 0.00 W/m2
19:09 47.7 °F 43.7 °F 30.2 in WNW 6.9 mph 11 mph 86% 0 in 0.00 W/m2
19:14 47.7 °F 43.7 °F 30.2 in West 6.9 mph 11 mph 86% 0 in 0.00 W/m2
19:19 47.7 °F 43.7 °F 30.2 in NW 13 mph 13 mph 86% 0 in 0.00 W/m2
19:24 47.7 °F 43.7 °F 30.2 in WNW 16 mph 16 mph 86% 0 in 0.00 W/m2
19:29 47.7 °F 43.7 °F 30.2 in NW 8.1 mph 15 mph 86% 0 in 0.00 W/m2
19:34 47.7 °F 43.7 °F 30.2 in WNW 12.1 mph 12 mph 86% 0 in 0.00 W/m2
19:39 47.7 °F 43.7 °F 30.2 in WNW 6 mph 14 mph 86% 0 in 0.00 W/m2
19:44 47.7 °F 43.7 °F 30.2 in WNW 6.9 mph 11 mph 86% 0 in 0.00 W/m2
19:49 47.7 °F 44.1 °F 30.2 in WSW 11 mph 11 mph 87% 0 in 0.00 W/m2
19:54 47.7 °F 44.1 °F 30.2 in West 2.9 mph 9 mph 87% 0 in 0.00 W/m2
19:59 47.7 °F 44.1 °F 30.2 in WNW 2.9 mph 9 mph 87% 0 in 0.00 W/m2
20:04 47.7 °F 44.1 °F 30.2 in WNW 8.9 mph 10 mph 87% 0 in 0.00 W/m2
20:09 47.8 °F 44.2 °F 30.2 in NW 12 mph 12 mph 87% 0 in 0.00 W/m2
20:14 47.8 °F 44.2 °F 30.2 in WNW 6 mph 10 mph 87% 0 in 0.00 W/m2
20:19 47.8 °F 44.2 °F 30.2 in WNW 6.9 mph 11 mph 87% 0 in 0.00 W/m2
20:24 47.8 °F 44.4 °F 30.2 in WNW 6 mph 10 mph 88% 0 in 0.00 W/m2
20:29 47.8 °F 44.4 °F 30.2 in WNW 4 mph 10 mph 88% 0 in 0.00 W/m2
20:34 47.8 °F 44.4 °F 30.2 in West 2.9 mph 9 mph 88% 0 in 0.00 W/m2
20:39 47.8 °F 44.4 °F 30.2 in WNW 8.1 mph 10 mph 88% 0 in 0.00 W/m2
20:44 48 °F 44.6 °F 30.2 in WNW 0.9 mph 8 mph 88% 0 in 0.00 W/m2
20:49 48 °F 44.6 °F 30.2 in WNW 4.9 mph 9 mph 88% 0 in 0.00 W/m2
20:54 48 °F 44.6 °F 30.2 in WNW 8.9 mph 11 mph 88% 0 in 0.00 W/m2
20:59 48.2 °F 44.8 °F 30.2 in WNW 4 mph 10 mph 88% 0 in 0.00 W/m2
21:04 48.2 °F 44.8 °F 30.2 in WNW 8.9 mph 9 mph 88% 0 in 0.00 W/m2
21:09 48.2 °F 44.8 °F 30.2 in WNW 6.9 mph 10 mph 88% 0 in 0.00 W/m2
21:14 48.2 °F 44.8 °F 30.2 in NW 6 mph 10 mph 88% 0 in 0.00 W/m2
21:19 48.2 °F 44.8 °F 30.2 in WNW 8.1 mph 11 mph 88% 0 in 0.00 W/m2
21:24 48.2 °F 44.8 °F 30.2 in NW 8.1 mph 10 mph 88% 0 in 0.00 W/m2
21:29 48.2 °F 44.8 °F 30.2 in WNW 8.9 mph 14 mph 88% 0 in 0.00 W/m2
21:34 48.4 °F 45 °F 30.2 in NW 6 mph 13 mph 88% 0 in 0.00 W/m2
21:39 48.4 °F 45 °F 30.2 in WNW 4.9 mph 11 mph 88% 0 in 0.00 W/m2
21:44 48.2 °F 44.8 °F 30.2 in NW 6 mph 10 mph 88% 0 in 0.00 W/m2
21:49 48.2 °F 44.8 °F 30.2 in WNW 6 mph 12 mph 88% 0 in 0.00 W/m2
21:54 48.2 °F 44.8 °F 30.2 in NW 6.9 mph 11 mph 88% 0 in 0.00 W/m2
21:59 48.2 °F 44.8 °F 30.2 in NW 8.1 mph 12 mph 88% 0 in 0.00 W/m2
22:04 48.2 °F 44.8 °F 30.2 in WNW 4.9 mph 11 mph 88% 0 in 0.00 W/m2
22:09 48 °F 44.6 °F 30.2 in NW 6 mph 10 mph 88% 0 in 0.00 W/m2
22:14 48.2 °F 44.8 °F 30.2 in NW 4.9 mph 11 mph 88% 0 in 0.00 W/m2
22:19 48.2 °F 44.8 °F 30.2 in NW 6 mph 9 mph 88% 0 in 0.00 W/m2
22:24 48.4 °F 45 °F 30.2 in WNW 4 mph 12 mph 88% 0 in 0.00 W/m2
22:29 48.4 °F 45 °F 30.2 in NW 2.9 mph 7 mph 88% 0 in 0.00 W/m2
22:34 48.6 °F 45.1 °F 30.2 in NW 6.9 mph 9 mph 88% 0 in 0.00 W/m2
22:39 48.7 °F 45.3 °F 30.2 in WNW 8.1 mph 9 mph 88% 0 in 0.00 W/m2
22:44 48.7 °F 45.3 °F 30.2 in WNW 6 mph 9 mph 88% 0 in 0.00 W/m2
22:49 48.7 °F 45.3 °F 30.2 in WNW 4.9 mph 10 mph 88% 0 in 0.00 W/m2
22:54 48.6 °F 45.1 °F 30.2 in NW 4.9 mph 11 mph 88% 0 in 0.00 W/m2
22:59 48.4 °F 45 °F 30.2 in West 4 mph 12 mph 88% 0 in 0.00 W/m2
23:04 48.4 °F 45.3 °F 30.2 in WNW 8.9 mph 10 mph 89% 0 in 0.00 W/m2
23:09 48.4 °F 45.3 °F 30.2 in WNW 4.9 mph 10 mph 89% 0 in 0.00 W/m2
23:14 48.4 °F 45.3 °F 30.2 in WNW 4 mph 11 mph 89% 0 in 0.00 W/m2
23:19 48.4 °F 45.3 °F 30.2 in NW 4.9 mph 7 mph 89% 0 in 0.00 W/m2
23:24 48.2 °F 45.1 °F 30.2 in West 2.9 mph 9 mph 89% 0 in 0.00 W/m2
23:29 48.4 °F 45.5 °F 30.2 in WNW 8.1 mph 10 mph 90% 0 in 0.00 W/m2
23:34 48.4 °F 45.5 °F 30.2 in NW 2.9 mph 6 mph 90% 0 in 0.00 W/m2
23:39 48.6 °F 45.7 °F 30.2 in WNW 4 mph 10 mph 90% 0 in 0.00 W/m2
23:44 48.4 °F 45.5 °F 30.2 in WNW 4 mph 9 mph 90% 0 in 0.00 W/m2
23:49 48.4 °F 45.5 °F 30.2 in NW 6.9 mph 8 mph 90% 0 in 0.00 W/m2
23:54 48.6 °F 45.7 °F 30.2 in WNW 4 mph 8 mph 90% 0 in 0.00 W/m2
23:59 48.6 °F 45.7 °F 30.2 in WNW 4 mph 8 mph 90% 0 in 0.00 W/m2